sensor_id;sensor_type;location;lat;lon;timestamp;P1;durP1;ratioP1;P2;durP2;ratioP2
49340;SDS011;35209;51.050;13.678;2023-07-31T00:01:07;1.23;;;0.60;;
49340;SDS011;35209;51.050;13.678;2023-07-31T00:06:09;2.40;;;0.63;;
49340;SDS011;35209;51.050;13.678;2023-07-31T00:11:11;2.03;;;0.63;;
49340;SDS011;35209;51.050;13.678;2023-07-31T00:16:13;2.17;;;1.02;;
49340;SDS011;35209;51.050;13.678;2023-07-31T00:21:15;2.33;;;0.60;;
49340;SDS011;35209;51.050;13.678;2023-07-31T00:26:16;2.92;;;0.80;;
49340;SDS011;35209;51.050;13.678;2023-07-31T00:31:18;3.88;;;1.20;;
49340;SDS011;35209;51.050;13.678;2023-07-31T00:36:22;1.13;;;0.57;;
49340;SDS011;35209;51.050;13.678;2023-07-31T00:41:23;3.03;;;1.00;;
49340;SDS011;35209;51.050;13.678;2023-07-31T00:46:25;2.45;;;0.77;;
49340;SDS011;35209;51.050;13.678;2023-07-31T00:51:27;1.55;;;0.60;;
49340;SDS011;35209;51.050;13.678;2023-07-31T00:56:30;1.25;;;0.70;;
49340;SDS011;35209;51.050;13.678;2023-07-31T01:01:32;0.90;;;0.55;;
49340;SDS011;35209;51.050;13.678;2023-07-31T01:06:40;2.35;;;0.80;;
49340;SDS011;35209;51.050;13.678;2023-07-31T01:11:53;2.75;;;1.05;;
49340;SDS011;35209;51.050;13.678;2023-07-31T01:16:59;1.40;;;0.60;;
49340;SDS011;35209;51.050;13.678;2023-07-31T01:27:31;1.52;;;0.70;;
49340;SDS011;35209;51.050;13.678;2023-07-31T01:32:42;2.42;;;0.80;;
49340;SDS011;35209;51.050;13.678;2023-07-31T01:37:45;1.88;;;0.70;;
49340;SDS011;35209;51.050;13.678;2023-07-31T01:42:47;2.20;;;0.88;;
49340;SDS011;35209;51.050;13.678;2023-07-31T01:47:49;1.98;;;0.70;;
49340;SDS011;35209;51.050;13.678;2023-07-31T01:52:51;2.25;;;0.80;;
49340;SDS011;35209;51.050;13.678;2023-07-31T01:57:53;1.83;;;0.60;;
49340;SDS011;35209;51.050;13.678;2023-07-31T02:02:55;1.60;;;0.73;;
49340;SDS011;35209;51.050;13.678;2023-07-31T02:07:57;1.95;;;0.80;;
49340;SDS011;35209;51.050;13.678;2023-07-31T02:13:01;3.22;;;1.05;;
49340;SDS011;35209;51.050;13.678;2023-07-31T02:18:05;3.05;;;0.80;;
49340;SDS011;35209;51.050;13.678;2023-07-31T02:23:06;3.42;;;0.95;;
49340;SDS011;35209;51.050;13.678;2023-07-31T02:28:08;1.33;;;0.63;;
49340;SDS011;35209;51.050;13.678;2023-07-31T02:33:10;1.52;;;0.70;;
49340;SDS011;35209;51.050;13.678;2023-07-31T02:38:12;1.40;;;0.70;;
49340;SDS011;35209;51.050;13.678;2023-07-31T02:43:14;2.05;;;1.13;;
49340;SDS011;35209;51.050;13.678;2023-07-31T02:48:15;2.17;;;0.80;;
49340;SDS011;35209;51.050;13.678;2023-07-31T02:53:17;1.40;;;0.90;;
49340;SDS011;35209;51.050;13.678;2023-07-31T02:58:19;1.42;;;0.70;;
49340;SDS011;35209;51.050;13.678;2023-07-31T03:03:21;6.93;;;0.70;;
49340;SDS011;35209;51.050;13.678;2023-07-31T03:08:23;1.45;;;0.55;;
49340;SDS011;35209;51.050;13.678;2023-07-31T03:13:24;2.20;;;0.90;;
49340;SDS011;35209;51.050;13.678;2023-07-31T03:18:26;2.33;;;0.70;;
49340;SDS011;35209;51.050;13.678;2023-07-31T03:23:28;1.75;;;0.75;;
49340;SDS011;35209;51.050;13.678;2023-07-31T03:28:30;2.25;;;0.77;;
49340;SDS011;35209;51.050;13.678;2023-07-31T03:33:32;1.67;;;0.80;;
49340;SDS011;35209;51.050;13.678;2023-07-31T03:38:34;2.03;;;0.93;;
49340;SDS011;35209;51.050;13.678;2023-07-31T03:43:36;2.47;;;0.70;;
49340;SDS011;35209;51.050;13.678;2023-07-31T03:48:38;2.38;;;1.10;;
49340;SDS011;35209;51.050;13.678;2023-07-31T03:53:40;1.95;;;0.80;;
49340;SDS011;35209;51.050;13.678;2023-07-31T03:58:42;1.90;;;1.10;;
49340;SDS011;35209;51.050;13.678;2023-07-31T04:03:43;3.13;;;1.30;;
49340;SDS011;35209;51.050;13.678;2023-07-31T04:08:45;3.13;;;0.90;;
49340;SDS011;35209;51.050;13.678;2023-07-31T04:13:47;1.52;;;1.10;;
49340;SDS011;35209;51.050;13.678;2023-07-31T04:18:49;2.53;;;1.27;;
49340;SDS011;35209;51.050;13.678;2023-07-31T04:23:50;2.00;;;1.20;;
49340;SDS011;35209;51.050;13.678;2023-07-31T04:28:52;3.25;;;1.27;;
49340;SDS011;35209;51.050;13.678;2023-07-31T04:33:54;2.00;;;1.20;;
49340;SDS011;35209;51.050;13.678;2023-07-31T04:38:56;2.72;;;1.48;;
49340;SDS011;35209;51.050;13.678;2023-07-31T04:43:57;3.35;;;1.45;;
49340;SDS011;35209;51.050;13.678;2023-07-31T04:49:00;1.70;;;1.20;;
49340;SDS011;35209;51.050;13.678;2023-07-31T04:54:02;2.25;;;0.98;;
49340;SDS011;35209;51.050;13.678;2023-07-31T04:59:03;1.77;;;1.23;;
49340;SDS011;35209;51.050;13.678;2023-07-31T05:04:05;2.53;;;1.13;;
49340;SDS011;35209;51.050;13.678;2023-07-31T05:09:07;2.58;;;1.35;;
49340;SDS011;35209;51.050;13.678;2023-07-31T05:14:10;1.60;;;1.05;;
49340;SDS011;35209;51.050;13.678;2023-07-31T05:19:12;3.30;;;1.15;;
49340;SDS011;35209;51.050;13.678;2023-07-31T05:24:14;2.72;;;1.00;;
49340;SDS011;35209;51.050;13.678;2023-07-31T05:29:15;2.35;;;1.00;;
49340;SDS011;35209;51.050;13.678;2023-07-31T05:34:18;3.53;;;1.15;;
49340;SDS011;35209;51.050;13.678;2023-07-31T05:39:19;3.38;;;1.35;;
49340;SDS011;35209;51.050;13.678;2023-07-31T05:44:21;1.98;;;1.33;;
49340;SDS011;35209;51.050;13.678;2023-07-31T05:49:23;2.05;;;1.20;;
49340;SDS011;35209;51.050;13.678;2023-07-31T05:54:25;2.22;;;1.38;;
49340;SDS011;35209;51.050;13.678;2023-07-31T05:59:26;2.55;;;1.20;;
49340;SDS011;35209;51.050;13.678;2023-07-31T06:04:28;1.60;;;1.10;;
49340;SDS011;35209;51.050;13.678;2023-07-31T06:09:30;2.75;;;1.30;;
49340;SDS011;35209;51.050;13.678;2023-07-31T06:14:32;2.30;;;1.40;;
49340;SDS011;35209;51.050;13.678;2023-07-31T06:19:34;2.78;;;1.08;;
49340;SDS011;35209;51.050;13.678;2023-07-31T06:24:35;3.10;;;1.30;;
49340;SDS011;35209;51.050;13.678;2023-07-31T06:29:37;6.32;;;1.25;;
49340;SDS011;35209;51.050;13.678;2023-07-31T06:34:39;2.25;;;1.25;;
49340;SDS011;35209;51.050;13.678;2023-07-31T06:39:40;3.08;;;1.30;;
49340;SDS011;35209;51.050;13.678;2023-07-31T06:44:42;1.77;;;1.10;;
49340;SDS011;35209;51.050;13.678;2023-07-31T06:49:44;2.22;;;1.13;;
49340;SDS011;35209;51.050;13.678;2023-07-31T06:54:59;2.28;;;1.30;;
49340;SDS011;35209;51.050;13.678;2023-07-31T07:00:03;1.63;;;1.00;;
49340;SDS011;35209;51.050;13.678;2023-07-31T07:05:06;1.85;;;1.17;;
49340;SDS011;35209;51.050;13.678;2023-07-31T07:10:08;1.83;;;0.98;;
49340;SDS011;35209;51.050;13.678;2023-07-31T07:15:10;3.40;;;1.50;;
49340;SDS011;35209;51.050;13.678;2023-07-31T07:20:12;2.42;;;1.40;;
49340;SDS011;35209;51.050;13.678;2023-07-31T07:25:14;1.63;;;1.30;;
49340;SDS011;35209;51.050;13.678;2023-07-31T07:30:16;2.22;;;1.40;;
49340;SDS011;35209;51.050;13.678;2023-07-31T07:35:19;2.03;;;1.10;;
49340;SDS011;35209;51.050;13.678;2023-07-31T07:40:21;4.15;;;1.60;;
49340;SDS011;35209;51.050;13.678;2023-07-31T07:45:23;2.00;;;1.10;;
49340;SDS011;35209;51.050;13.678;2023-07-31T07:50:24;1.67;;;0.90;;
49340;SDS011;35209;51.050;13.678;2023-07-31T07:55:26;2.22;;;1.10;;
49340;SDS011;35209;51.050;13.678;2023-07-31T08:00:28;2.13;;;1.23;;
49340;SDS011;35209;51.050;13.678;2023-07-31T08:05:30;2.17;;;1.45;;
49340;SDS011;35209;51.050;13.678;2023-07-31T08:10:35;1.77;;;1.17;;
49340;SDS011;35209;51.050;13.678;2023-07-31T08:15:37;2.17;;;1.00;;
49340;SDS011;35209;51.050;13.678;2023-07-31T08:20:39;3.65;;;1.25;;
49340;SDS011;35209;51.050;13.678;2023-07-31T08:25:40;2.63;;;1.30;;
49340;SDS011;35209;51.050;13.678;2023-07-31T08:30:42;2.55;;;1.25;;
49340;SDS011;35209;51.050;13.678;2023-07-31T08:35:44;3.72;;;1.30;;
49340;SDS011;35209;51.050;13.678;2023-07-31T08:40:46;2.72;;;1.05;;
49340;SDS011;35209;51.050;13.678;2023-07-31T08:45:47;2.25;;;1.30;;
49340;SDS011;35209;51.050;13.678;2023-07-31T08:50:51;2.25;;;1.30;;
49340;SDS011;35209;51.050;13.678;2023-07-31T08:55:54;1.90;;;1.25;;
49340;SDS011;35209;51.050;13.678;2023-07-31T09:01:00;3.05;;;1.33;;
49340;SDS011;35209;51.050;13.678;2023-07-31T09:06:04;3.22;;;1.25;;
49340;SDS011;35209;51.050;13.678;2023-07-31T09:11:08;2.20;;;1.38;;
49340;SDS011;35209;51.050;13.678;2023-07-31T09:16:09;2.05;;;1.17;;
49340;SDS011;35209;51.050;13.678;2023-07-31T09:21:11;2.75;;;1.38;;
49340;SDS011;35209;51.050;13.678;2023-07-31T09:26:29;2.60;;;1.27;;
49340;SDS011;35209;51.050;13.678;2023-07-31T09:31:41;1.52;;;1.10;;
49340;SDS011;35209;51.050;13.678;2023-07-31T09:36:45;4.25;;;1.40;;
49340;SDS011;35209;51.050;13.678;2023-07-31T09:41:53;1.58;;;1.30;;
49340;SDS011;35209;51.050;13.678;2023-07-31T09:46:56;2.15;;;1.00;;
49340;SDS011;35209;51.050;13.678;2023-07-31T09:51:58;1.75;;;1.10;;
49340;SDS011;35209;51.050;13.678;2023-07-31T09:57:00;1.70;;;1.30;;
49340;SDS011;35209;51.050;13.678;2023-07-31T10:02:02;2.28;;;1.30;;
49340;SDS011;35209;51.050;13.678;2023-07-31T10:07:04;2.63;;;1.55;;
49340;SDS011;35209;51.050;13.678;2023-07-31T10:12:06;2.03;;;1.45;;
49340;SDS011;35209;51.050;13.678;2023-07-31T10:17:13;2.38;;;1.42;;
49340;SDS011;35209;51.050;13.678;2023-07-31T10:22:16;3.50;;;1.33;;
49340;SDS011;35209;51.050;13.678;2023-07-31T10:27:20;1.85;;;1.45;;
49340;SDS011;35209;51.050;13.678;2023-07-31T10:32:21;2.20;;;1.17;;
49340;SDS011;35209;51.050;13.678;2023-07-31T10:37:28;2.00;;;1.10;;
49340;SDS011;35209;51.050;13.678;2023-07-31T10:42:35;2.20;;;1.30;;
49340;SDS011;35209;51.050;13.678;2023-07-31T10:47:44;2.30;;;1.65;;
49340;SDS011;35209;51.050;13.678;2023-07-31T10:52:51;1.20;;;1.10;;
49340;SDS011;35209;51.050;13.678;2023-07-31T10:57:54;1.33;;;1.13;;
49340;SDS011;35209;51.050;13.678;2023-07-31T11:03:03;2.30;;;1.83;;
49340;SDS011;35209;51.050;13.678;2023-07-31T11:08:22;1.33;;;1.10;;
49340;SDS011;35209;51.050;13.678;2023-07-31T11:13:25;3.25;;;2.33;;
49340;SDS011;35209;51.050;13.678;2023-07-31T11:18:27;1.83;;;1.10;;
49340;SDS011;35209;51.050;13.678;2023-07-31T11:23:29;2.17;;;1.25;;
49340;SDS011;35209;51.050;13.678;2023-07-31T11:28:32;1.60;;;1.00;;
49340;SDS011;35209;51.050;13.678;2023-07-31T11:33:35;1.40;;;0.95;;
49340;SDS011;35209;51.050;13.678;2023-07-31T11:38:37;1.23;;;0.98;;
49340;SDS011;35209;51.050;13.678;2023-07-31T11:43:39;2.10;;;1.15;;
49340;SDS011;35209;51.050;13.678;2023-07-31T11:48:40;1.73;;;0.90;;
49340;SDS011;35209;51.050;13.678;2023-07-31T11:53:43;1.35;;;0.80;;
49340;SDS011;35209;51.050;13.678;2023-07-31T11:58:50;0.93;;;0.80;;
49340;SDS011;35209;51.050;13.678;2023-07-31T12:03:54;0.90;;;0.80;;
49340;SDS011;35209;51.050;13.678;2023-07-31T12:09:02;2.10;;;1.05;;
49340;SDS011;35209;51.050;13.678;2023-07-31T12:14:05;1.50;;;1.00;;
49340;SDS011;35209;51.050;13.678;2023-07-31T12:19:06;1.88;;;1.35;;
49340;SDS011;35209;51.050;13.678;2023-07-31T12:24:08;1.40;;;0.90;;
49340;SDS011;35209;51.050;13.678;2023-07-31T12:29:10;2.03;;;0.90;;
49340;SDS011;35209;51.050;13.678;2023-07-31T12:34:16;2.20;;;1.40;;
49340;SDS011;35209;51.050;13.678;2023-07-31T12:39:20;1.98;;;1.10;;
49340;SDS011;35209;51.050;13.678;2023-07-31T12:44:22;2.17;;;1.17;;
49340;SDS011;35209;51.050;13.678;2023-07-31T12:49:23;2.28;;;1.30;;
49340;SDS011;35209;51.050;13.678;2023-07-31T12:54:25;1.35;;;1.10;;
49340;SDS011;35209;51.050;13.678;2023-07-31T12:59:27;2.22;;;1.00;;
49340;SDS011;35209;51.050;13.678;2023-07-31T13:04:28;1.27;;;0.98;;
49340;SDS011;35209;51.050;13.678;2023-07-31T13:09:30;2.22;;;1.30;;
49340;SDS011;35209;51.050;13.678;2023-07-31T13:14:32;1.25;;;0.82;;
49340;SDS011;35209;51.050;13.678;2023-07-31T13:19:33;1.73;;;1.25;;
49340;SDS011;35209;51.050;13.678;2023-07-31T13:24:35;1.63;;;0.93;;
49340;SDS011;35209;51.050;13.678;2023-07-31T13:29:37;1.65;;;1.27;;
49340;SDS011;35209;51.050;13.678;2023-07-31T13:34:39;1.35;;;1.13;;
49340;SDS011;35209;51.050;13.678;2023-07-31T13:39:41;1.45;;;1.10;;
49340;SDS011;35209;51.050;13.678;2023-07-31T13:44:43;1.25;;;0.90;;
49340;SDS011;35209;51.050;13.678;2023-07-31T13:49:45;1.77;;;1.10;;
49340;SDS011;35209;51.050;13.678;2023-07-31T13:54:49;1.20;;;1.10;;
49340;SDS011;35209;51.050;13.678;2023-07-31T13:59:51;2.25;;;1.13;;
49340;SDS011;35209;51.050;13.678;2023-07-31T14:04:53;1.90;;;1.15;;
49340;SDS011;35209;51.050;13.678;2023-07-31T14:09:55;1.30;;;0.98;;
49340;SDS011;35209;51.050;13.678;2023-07-31T14:14:56;1.27;;;1.00;;
49340;SDS011;35209;51.050;13.678;2023-07-31T14:19:58;1.52;;;1.40;;
49340;SDS011;35209;51.050;13.678;2023-07-31T14:25:01;3.95;;;1.20;;
49340;SDS011;35209;51.050;13.678;2023-07-31T14:30:03;1.60;;;1.05;;
49340;SDS011;35209;51.050;13.678;2023-07-31T14:35:05;1.52;;;0.95;;
49340;SDS011;35209;51.050;13.678;2023-07-31T14:40:08;2.20;;;1.30;;
49340;SDS011;35209;51.050;13.678;2023-07-31T14:45:10;1.17;;;0.90;;
49340;SDS011;35209;51.050;13.678;2023-07-31T14:50:12;1.48;;;1.10;;
49340;SDS011;35209;51.050;13.678;2023-07-31T14:55:14;1.73;;;1.23;;
49340;SDS011;35209;51.050;13.678;2023-07-31T15:00:16;1.17;;;0.82;;
49340;SDS011;35209;51.050;13.678;2023-07-31T15:05:18;3.22;;;1.25;;
49340;SDS011;35209;51.050;13.678;2023-07-31T15:10:19;1.20;;;0.90;;
49340;SDS011;35209;51.050;13.678;2023-07-31T15:15:23;1.35;;;1.10;;
49340;SDS011;35209;51.050;13.678;2023-07-31T15:21:09;1.48;;;1.10;;
49340;SDS011;35209;51.050;13.678;2023-07-31T15:26:11;2.13;;;1.10;;
49340;SDS011;35209;51.050;13.678;2023-07-31T15:31:13;2.22;;;1.20;;
49340;SDS011;35209;51.050;13.678;2023-07-31T15:36:17;2.35;;;1.33;;
49340;SDS011;35209;51.050;13.678;2023-07-31T15:41:19;2.88;;;1.60;;
49340;SDS011;35209;51.050;13.678;2023-07-31T15:46:22;2.60;;;1.48;;
49340;SDS011;35209;51.050;13.678;2023-07-31T15:51:24;2.00;;;1.30;;
49340;SDS011;35209;51.050;13.678;2023-07-31T15:56:26;1.80;;;1.10;;
49340;SDS011;35209;51.050;13.678;2023-07-31T16:01:28;1.52;;;1.20;;
49340;SDS011;35209;51.050;13.678;2023-07-31T16:06:30;1.45;;;1.25;;
49340;SDS011;35209;51.050;13.678;2023-07-31T16:11:31;1.90;;;1.15;;
49340;SDS011;35209;51.050;13.678;2023-07-31T16:16:33;1.95;;;1.48;;
49340;SDS011;35209;51.050;13.678;2023-07-31T16:21:35;2.15;;;1.20;;
49340;SDS011;35209;51.050;13.678;2023-07-31T16:26:37;1.50;;;1.13;;
49340;SDS011;35209;51.050;13.678;2023-07-31T16:31:39;2.95;;;1.20;;
49340;SDS011;35209;51.050;13.678;2023-07-31T16:36:57;1.20;;;1.00;;
49340;SDS011;35209;51.050;13.678;2023-07-31T16:41:59;1.52;;;1.20;;
49340;SDS011;35209;51.050;13.678;2023-07-31T16:47:01;2.38;;;1.42;;
49340;SDS011;35209;51.050;13.678;2023-07-31T16:52:02;2.33;;;1.42;;
49340;SDS011;35209;51.050;13.678;2023-07-31T16:57:04;2.47;;;1.80;;
49340;SDS011;35209;51.050;13.678;2023-07-31T17:02:06;2.95;;;1.20;;
49340;SDS011;35209;51.050;13.678;2023-07-31T17:07:09;3.05;;;1.80;;
49340;SDS011;35209;51.050;13.678;2023-07-31T17:12:12;3.17;;;1.42;;
49340;SDS011;35209;51.050;13.678;2023-07-31T17:17:13;2.40;;;1.35;;
49340;SDS011;35209;51.050;13.678;2023-07-31T17:22:15;2.50;;;1.38;;
49340;SDS011;35209;51.050;13.678;2023-07-31T17:27:17;2.10;;;1.50;;
49340;SDS011;35209;51.050;13.678;2023-07-31T17:32:18;2.08;;;1.15;;
49340;SDS011;35209;51.050;13.678;2023-07-31T17:42:26;2.22;;;1.30;;
49340;SDS011;35209;51.050;13.678;2023-07-31T17:47:28;2.25;;;1.20;;
49340;SDS011;35209;51.050;13.678;2023-07-31T17:52:30;5.28;;;1.25;;
49340;SDS011;35209;51.050;13.678;2023-07-31T17:57:31;2.67;;;1.48;;
49340;SDS011;35209;51.050;13.678;2023-07-31T18:02:33;2.13;;;1.30;;
49340;SDS011;35209;51.050;13.678;2023-07-31T18:07:37;1.73;;;1.50;;
49340;SDS011;35209;51.050;13.678;2023-07-31T18:12:38;2.20;;;1.45;;
49340;SDS011;35209;51.050;13.678;2023-07-31T18:17:40;2.50;;;1.40;;
49340;SDS011;35209;51.050;13.678;2023-07-31T18:22:42;2.53;;;1.70;;
49340;SDS011;35209;51.050;13.678;2023-07-31T18:27:44;2.28;;;1.60;;
49340;SDS011;35209;51.050;13.678;2023-07-31T18:32:45;2.35;;;1.40;;
49340;SDS011;35209;51.050;13.678;2023-07-31T18:37:47;2.08;;;1.75;;
49340;SDS011;35209;51.050;13.678;2023-07-31T18:42:49;1.65;;;1.33;;
49340;SDS011;35209;51.050;13.678;2023-07-31T18:47:51;2.13;;;1.50;;
49340;SDS011;35209;51.050;13.678;2023-07-31T18:52:53;3.90;;;1.80;;
49340;SDS011;35209;51.050;13.678;2023-07-31T18:57:54;2.47;;;1.35;;
49340;SDS011;35209;51.050;13.678;2023-07-31T19:02:56;2.67;;;1.80;;
49340;SDS011;35209;51.050;13.678;2023-07-31T19:07:58;2.35;;;1.75;;
49340;SDS011;35209;51.050;13.678;2023-07-31T19:13:05;2.85;;;1.60;;
49340;SDS011;35209;51.050;13.678;2023-07-31T19:18:08;2.30;;;1.90;;
49340;SDS011;35209;51.050;13.678;2023-07-31T19:23:10;2.38;;;1.73;;
49340;SDS011;35209;51.050;13.678;2023-07-31T19:28:12;2.53;;;1.90;;
49340;SDS011;35209;51.050;13.678;2023-07-31T19:33:15;3.22;;;1.60;;
49340;SDS011;35209;51.050;13.678;2023-07-31T19:38:16;1.73;;;1.52;;
49340;SDS011;35209;51.050;13.678;2023-07-31T19:43:18;2.45;;;1.52;;
49340;SDS011;35209;51.050;13.678;2023-07-31T19:48:20;2.30;;;1.92;;
49340;SDS011;35209;51.050;13.678;2023-07-31T19:53:23;2.78;;;1.90;;
49340;SDS011;35209;51.050;13.678;2023-07-31T19:58:24;3.00;;;2.20;;
49340;SDS011;35209;51.050;13.678;2023-07-31T20:03:26;2.15;;;1.70;;
49340;SDS011;35209;51.050;13.678;2023-07-31T20:08:28;3.90;;;2.67;;
49340;SDS011;35209;51.050;13.678;2023-07-31T20:13:30;2.63;;;2.20;;
49340;SDS011;35209;51.050;13.678;2023-07-31T20:18:32;3.00;;;1.98;;
49340;SDS011;35209;51.050;13.678;2023-07-31T20:23:34;2.47;;;2.28;;
49340;SDS011;35209;51.050;13.678;2023-07-31T20:28:43;2.17;;;1.65;;
49340;SDS011;35209;51.050;13.678;2023-07-31T20:33:46;2.75;;;1.65;;
49340;SDS011;35209;51.050;13.678;2023-07-31T20:38:48;1.98;;;1.48;;
49340;SDS011;35209;51.050;13.678;2023-07-31T20:43:50;2.42;;;1.90;;
49340;SDS011;35209;51.050;13.678;2023-07-31T20:48:51;2.33;;;1.67;;
49340;SDS011;35209;51.050;13.678;2023-07-31T20:53:53;4.15;;;1.58;;
49340;SDS011;35209;51.050;13.678;2023-07-31T20:58:55;2.88;;;1.80;;
49340;SDS011;35209;51.050;13.678;2023-07-31T21:03:57;2.70;;;1.40;;
49340;SDS011;35209;51.050;13.678;2023-07-31T21:08:58;2.63;;;1.55;;
49340;SDS011;35209;51.050;13.678;2023-07-31T21:14:01;3.40;;;1.90;;
49340;SDS011;35209;51.050;13.678;2023-07-31T21:19:02;3.53;;;1.83;;
49340;SDS011;35209;51.050;13.678;2023-07-31T21:24:04;2.40;;;1.50;;
49340;SDS011;35209;51.050;13.678;2023-07-31T21:29:06;2.17;;;1.60;;
49340;SDS011;35209;51.050;13.678;2023-07-31T21:34:08;2.22;;;1.52;;
49340;SDS011;35209;51.050;13.678;2023-07-31T21:39:09;6.40;;;1.92;;
49340;SDS011;35209;51.050;13.678;2023-07-31T21:44:12;2.47;;;1.63;;
49340;SDS011;35209;51.050;13.678;2023-07-31T21:49:13;3.08;;;1.48;;
49340;SDS011;35209;51.050;13.678;2023-07-31T21:54:15;2.45;;;1.63;;
49340;SDS011;35209;51.050;13.678;2023-07-31T21:59:17;4.82;;;2.17;;
49340;SDS011;35209;51.050;13.678;2023-07-31T22:04:19;2.15;;;1.30;;
49340;SDS011;35209;51.050;13.678;2023-07-31T22:09:22;2.60;;;1.42;;
49340;SDS011;35209;51.050;13.678;2023-07-31T22:14:24;1.98;;;1.40;;
49340;SDS011;35209;51.050;13.678;2023-07-31T22:19:25;1.52;;;1.20;;
49340;SDS011;35209;51.050;13.678;2023-07-31T22:24:27;1.95;;;1.48;;
49340;SDS011;35209;51.050;13.678;2023-07-31T22:29:28;2.90;;;1.40;;
49340;SDS011;35209;51.050;13.678;2023-07-31T22:34:31;2.55;;;1.40;;
49340;SDS011;35209;51.050;13.678;2023-07-31T22:39:33;2.45;;;1.42;;
49340;SDS011;35209;51.050;13.678;2023-07-31T22:44:36;1.45;;;1.30;;
49340;SDS011;35209;51.050;13.678;2023-07-31T22:49:38;2.13;;;1.85;;
49340;SDS011;35209;51.050;13.678;2023-07-31T22:54:40;3.75;;;1.88;;
49340;SDS011;35209;51.050;13.678;2023-07-31T22:59:41;2.08;;;1.48;;
49340;SDS011;35209;51.050;13.678;2023-07-31T23:04:44;3.05;;;1.30;;
49340;SDS011;35209;51.050;13.678;2023-07-31T23:09:46;2.38;;;1.40;;
49340;SDS011;35209;51.050;13.678;2023-07-31T23:14:47;2.03;;;1.40;;
49340;SDS011;35209;51.050;13.678;2023-07-31T23:19:49;1.90;;;1.35;;
49340;SDS011;35209;51.050;13.678;2023-07-31T23:24:52;2.17;;;1.67;;
49340;SDS011;35209;51.050;13.678;2023-07-31T23:29:54;4.07;;;1.90;;
49340;SDS011;35209;51.050;13.678;2023-07-31T23:34:56;2.17;;;1.52;;
49340;SDS011;35209;51.050;13.678;2023-07-31T23:39:57;2.83;;;1.80;;
49340;SDS011;35209;51.050;13.678;2023-07-31T23:44:59;2.72;;;1.63;;
49340;SDS011;35209;51.050;13.678;2023-07-31T23:50:12;3.00;;;2.08;;
49340;SDS011;35209;51.050;13.678;2023-07-31T23:55:16;2.63;;;1.50;;
